Time;durP1;ratioP1;P1;durP2;ratioP2;P2;SDS_P1;SDS_P2;PMS_P1;PMS_P2;Temp;Humidity;BMP_temperature;BMP_pressure;BME280_temperature;BME280_humidity;BME280_pressure;Samples;Min_cycle;Max_cycle;Signal;HPM_P1;HPM_P2
2022/03/14 00:00:27;;;;;;;4.47;4.07;;;20.40;40.00;;;;;;4952745;29;20222;-66
2022/03/14 00:02:52;;;;;;;4.30;3.90;;;20.40;40.00;;;;;;4952617;28;20210;-66
2022/03/14 00:05:18;;;;;;;4.82;4.43;;;20.40;40.00;;;;;;4953175;29;20539;-66
2022/03/14 00:07:46;;;;;;;4.50;4.10;;;20.40;40.00;;;;;;4953178;29;20186;-67
2022/03/14 00:10:15;;;;;;;4.70;4.30;;;20.40;40.00;;;;;;4952950;28;20219;-66
2022/03/14 00:12:48;;;;;;;4.72;4.32;;;20.40;40.00;;;;;;4952881;28;20265;-66
2022/03/14 00:15:16;;;;;;;4.80;4.38;;;20.40;40.00;;;;;;4956639;29;20234;-66
2022/03/14 00:17:47;;;;;;;5.03;4.53;;;20.40;40.00;;;;;;4956940;28;20196;-66
2022/03/14 00:20:14;;;;;;;5.22;4.72;;;20.40;40.00;;;;;;4957682;29;20198;-66
2022/03/14 00:22:41;;;;;;;4.95;4.55;;;20.40;40.00;;;;;;4956293;28;20269;-66
2022/03/14 00:25:09;;;;;;;5.18;4.68;;;20.40;40.00;;;;;;4956669;28;20273;-66
2022/03/14 00:27:36;;;;;;;5.25;4.75;;;20.40;40.00;;;;;;4956623;29;20561;-68
2022/03/14 00:30:05;;;;;;;5.15;4.65;;;20.40;40.00;;;;;;4956599;28;20210;-66
2022/03/14 00:32:34;;;;;;;4.55;4.15;;;20.40;40.00;;;;;;4978404;22;20244;-67
2022/03/14 00:35:01;;;;;;;4.45;4.07;;;20.40;40.00;;;;;;4995130;28;20563;-68
2022/03/14 00:37:27;;;;;;;3.88;3.58;;;20.40;40.00;;;;;;4996148;28;20548;-68
2022/03/14 00:39:53;;;;;;;4.43;4.03;;;20.40;40.00;;;;;;4994846;28;20217;-68
2022/03/14 00:42:22;;;;;;;4.53;4.13;;;20.40;40.00;;;;;;4994791;28;20181;-68
2022/03/14 00:44:50;;;;;;;4.60;4.20;;;20.40;40.00;;;;;;4994907;28;20173;-68
2022/03/14 00:47:18;;;;;;;4.30;3.97;;;20.40;40.10;;;;;;4978800;28;20185;-68
2022/03/14 00:49:46;;;;;;;4.63;4.22;;;20.40;40.10;;;;;;4995987;28;20177;-68
2022/03/14 00:52:12;;;;;;;4.43;4.03;;;20.40;40.10;;;;;;4978320;28;20279;-68
2022/03/14 00:54:44;;;;;;;4.65;4.25;;;20.30;40.00;;;;;;4994733;28;20165;-68
2022/03/14 00:57:10;;;;;;;4.53;4.13;;;20.40;40.10;;;;;;4978448;28;20189;-68
2022/03/14 00:59:36;;;;;;;5.22;4.78;;;20.40;40.10;;;;;;4994569;28;20319;-68
2022/03/14 01:02:03;;;;;;;4.80;4.38;;;20.40;40.10;;;;;;4994522;28;20734;-68
2022/03/14 01:04:29;;;;;;;4.82;4.43;;;20.40;40.10;;;;;;4994479;28;20204;-68
2022/03/14 01:06:56;;;;;;;4.90;4.50;;;20.40;40.20;;;;;;4994732;28;20196;-68
2022/03/14 01:09:21;;;;;;;5.53;5.03;;;20.40;40.10;;;;;;4994456;28;20185;-68
2022/03/14 01:11:47;;;;;;;5.45;4.88;;;20.40;40.10;;;;;;4978006;28;20207;-68
2022/03/14 01:14:16;;;;;;;5.25;4.75;;;20.30;40.00;;;;;;4994438;28;20216;-68
2022/03/14 01:16:42;;;;;;;5.22;4.82;;;20.30;40.00;;;;;;4994572;28;20291;-68
2022/03/14 01:19:11;;;;;;;5.05;4.65;;;20.30;40.00;;;;;;4978090;28;20680;-68
2022/03/14 01:21:41;;;;;;;5.18;4.60;;;20.40;40.20;;;;;;4978155;28;20204;-68
2022/03/14 01:24:07;;;;;;;4.85;4.40;;;20.30;40.00;;;;;;4993579;28;20219;-68
2022/03/14 01:26:34;;;;;;;4.28;3.88;;;20.30;40.00;;;;;;4977903;28;20271;-68
2022/03/14 01:29:02;;;;;;;4.68;4.28;;;20.40;40.20;;;;;;4978087;28;20287;-68
2022/03/14 01:31:28;;;;;;;5.22;4.38;;;20.40;40.20;;;;;;4994024;28;20184;-68
2022/03/14 01:33:54;;;;;;;4.70;4.30;;;20.40;40.20;;;;;;4977561;28;20220;-68
2022/03/14 01:36:20;;;;;;;4.45;4.05;;;20.40;40.20;;;;;;4961903;28;20192;-68
2022/03/14 01:38:46;;;;;;;4.80;4.30;;;20.40;40.20;;;;;;4993904;28;20212;-68
2022/03/14 01:41:16;;;;;;;4.68;4.28;;;20.40;40.20;;;;;;4991298;28;20185;-68
2022/03/14 01:43:42;;;;;;;4.70;4.30;;;20.40;40.20;;;;;;4993528;28;20205;-68
2022/03/14 01:46:08;;;;;;;4.95;4.40;;;20.40;40.30;;;;;;4979996;28;20177;-68
2022/03/14 01:48:34;;;;;;;4.88;4.38;;;20.40;40.30;;;;;;4987812;28;20197;-68
2022/03/14 01:51:00;;;;;;;5.32;4.82;;;20.40;40.20;;;;;;4993642;28;20193;-68
2022/03/14 01:53:29;;;;;;;5.70;5.20;;;20.40;40.30;;;;;;4961122;28;20219;-68
2022/03/14 01:55:56;;;;;;;4.60;4.20;;;20.40;40.30;;;;;;4961425;28;20689;-68
2022/03/14 01:58:22;;;;;;;4.57;4.15;;;20.40;40.40;;;;;;4993595;28;20188;-68
2022/03/14 02:00:48;;;;;;;4.90;4.40;;;20.40;40.40;;;;;;4977293;28;20196;-68
2022/03/14 02:03:14;;;;;;;5.13;4.63;;;20.40;40.40;;;;;;4977059;28;20212;-68
2022/03/14 02:05:40;;;;;;;4.88;4.40;;;20.40;40.50;;;;;;4994670;28;20181;-68
2022/03/14 02:08:07;;;;;;;5.43;5.00;;;20.40;40.50;;;;;;4977422;28;20185;-68
2022/03/14 02:10:34;;;;;;;4.72;4.32;;;20.40;40.60;;;;;;4993543;28;20188;-68
2022/03/14 02:13:10;;;;;;;4.70;4.30;;;20.40;40.60;;;;;;4973356;28;20260;-68
2022/03/14 02:15:38;;;;;;;4.20;3.90;;;20.40;40.60;;;;;;4973966;28;20186;-68
2022/03/14 02:18:06;;;;;;;4.68;4.28;;;20.40;40.70;;;;;;4957573;28;20272;-68
2022/03/14 02:20:32;;;;;;;4.50;4.10;;;20.40;40.70;;;;;;4973592;28;20213;-68
2022/03/14 02:22:58;;;;;;;4.60;4.20;;;20.40;40.70;;;;;;4957626;28;20210;-68
2022/03/14 02:25:24;;;;;;;4.50;4.10;;;20.40;40.80;;;;;;4973571;28;20280;-68
2022/03/14 02:27:50;;;;;;;3.97;3.65;;;20.40;40.70;;;;;;4957571;28;20178;-68
2022/03/14 02:30:16;;;;;;;4.28;3.88;;;20.40;40.80;;;;;;4973527;28;20655;-68
2022/03/14 02:32:42;;;;;;;4.25;3.85;;;20.40;40.80;;;;;;4973330;28;20304;-68
2022/03/14 02:35:10;;;;;;;4.30;3.90;;;20.40;40.80;;;;;;4957010;28;20189;-68
2022/03/14 02:37:36;;;;;;;4.35;3.92;;;20.40;40.90;;;;;;4974347;28;20216;-68
2022/03/14 02:40:05;;;;;;;4.60;4.20;;;20.40;40.90;;;;;;4976698;28;20712;-68
2022/03/14 02:42:31;;;;;;;4.35;3.95;;;20.40;41.00;;;;;;4993525;28;20572;-68
2022/03/14 02:44:57;;;;;;;4.65;4.25;;;20.40;41.00;;;;;;4992686;28;20185;-68
2022/03/14 02:47:23;;;;;;;5.20;4.70;;;20.40;41.00;;;;;;4976754;28;20192;-68
2022/03/14 02:49:49;;;;;;;5.22;4.72;;;20.40;41.00;;;;;;4976665;28;20200;-68
2022/03/14 02:52:15;;;;;;;5.45;4.95;;;20.40;41.10;;;;;;4992429;28;20185;-68
2022/03/14 02:54:42;;;;;;;4.50;4.20;;;20.40;41.10;;;;;;4976542;28;20564;-68
2022/03/14 02:57:09;;;;;;;5.03;4.53;;;20.40;41.10;;;;;;4976292;28;20220;-68
2022/03/14 02:59:35;;;;;;;4.82;4.43;;;20.40;41.20;;;;;;4992518;28;20216;-68
2022/03/14 03:02:01;;;;;;;3.72;3.42;;;20.40;41.20;;;;;;4992278;28;20192;-68
2022/03/14 03:04:26;;;;;;;3.88;3.58;;;20.40;41.20;;;;;;4959874;28;20227;-68
2022/03/14 03:06:55;;;;;;;4.10;3.80;;;20.40;41.20;;;;;;4993244;28;20193;-68
2022/03/14 03:09:21;;;;;;;4.00;3.60;;;20.40;41.30;;;;;;4992220;28;20279;-68
2022/03/14 03:11:47;;;;;;;3.50;3.20;;;20.40;41.30;;;;;;4992205;28;20275;-68
2022/03/14 03:14:13;;;;;;;3.58;3.28;;;20.40;41.30;;;;;;4964695;28;20279;-68
2022/03/14 03:16:39;;;;;;;3.25;3.00;;;20.40;41.30;;;;;;4992361;28;20188;-68
2022/03/14 03:19:06;;;;;;;3.90;3.60;;;20.30;41.30;;;;;;4976038;28;20240;-68
2022/03/14 03:21:39;;;;;;;3.35;3.05;;;20.40;41.40;;;;;;4991998;28;20243;-68
2022/03/14 03:24:09;;;;;;;3.92;3.50;;;20.40;41.40;;;;;;4991700;28;20212;-68
2022/03/14 03:26:39;;;;;;;2.95;2.75;;;20.30;41.30;;;;;;4975712;28;20188;-68
2022/03/14 03:29:09;;;;;;;3.55;3.28;;;20.30;41.40;;;;;;4993115;28;20191;-68
2022/03/14 03:31:37;;;;;;;3.60;3.30;;;20.40;41.50;;;;;;4975876;28;20271;-68
2022/03/14 03:34:04;;;;;;;3.65;3.38;;;20.40;41.50;;;;;;4992741;28;20239;-68
2022/03/14 03:36:31;;;;;;;3.97;3.40;;;20.30;41.50;;;;;;4992162;28;20555;-68
2022/03/14 03:38:58;;;;;;;3.50;3.20;;;20.40;41.60;;;;;;4959416;28;20212;-68
2022/03/14 03:41:26;;;;;;;4.20;3.40;;;20.30;41.50;;;;;;4959746;28;20177;-68
2022/03/14 03:43:51;;;;;;;3.70;3.10;;;20.40;41.60;;;;;;4975056;28;20581;-68
2022/03/14 03:46:18;;;;;;;3.35;3.15;;;20.40;41.70;;;;;;4991706;28;20196;-68
2022/03/14 03:48:44;;;;;;;3.53;3.22;;;20.40;41.70;;;;;;4975501;28;20188;-68
2022/03/14 03:51:09;;;;;;;3.35;3.05;;;20.40;41.70;;;;;;4991909;28;20188;-68
2022/03/14 03:53:35;;;;;;;3.30;3.00;;;20.30;41.70;;;;;;4991283;28;20212;-68
2022/03/14 03:56:01;;;;;;;3.33;3.03;;;20.30;41.80;;;;;;4991693;28;20211;-68
2022/03/14 03:58:28;;;;;;;3.28;3.00;;;20.30;41.80;;;;;;4975319;28;20193;-68
2022/03/14 04:00:54;;;;;;;3.28;3.05;;;20.30;41.80;;;;;;4991593;28;20332;-68
2022/03/14 04:03:20;;;;;;;2.97;2.70;;;20.40;41.90;;;;;;4991404;28;20276;-68
2022/03/14 04:05:49;;;;;;;3.30;3.00;;;20.30;41.80;;;;;;4991792;28;20177;-68
2022/03/14 04:08:14;;;;;;;2.78;2.58;;;20.30;41.90;;;;;;4991619;28;20189;-68
2022/03/14 04:10:41;;;;;;;2.83;2.63;;;20.30;41.90;;;;;;4986006;28;20239;-68
2022/03/14 04:13:08;;;;;;;2.75;2.55;;;20.30;41.80;;;;;;4991404;28;20208;-68
2022/03/14 04:15:42;;;;;;;2.90;2.70;;;20.30;41.90;;;;;;4991599;28;20216;-68
2022/03/14 04:18:09;;;;;;;2.47;2.28;;;20.30;41.80;;;;;;4991809;28;20184;-68
2022/03/14 04:20:36;;;;;;;2.35;2.25;;;20.30;41.80;;;;;;4975400;28;20205;-68
2022/03/14 04:23:02;;;;;;;2.70;2.50;;;20.30;41.80;;;;;;4991216;28;20227;-68
2022/03/14 04:25:28;;;;;;;2.95;2.40;;;20.30;41.80;;;;;;4975159;28;20208;-68
2022/03/14 04:27:54;;;;;;;2.50;2.35;;;20.30;41.90;;;;;;4975261;28;20224;-68
2022/03/14 04:30:20;;;;;;;2.50;2.35;;;20.40;42.00;;;;;;4991620;28;20208;-68
2022/03/14 04:32:46;;;;;;;2.60;2.40;;;20.30;41.80;;;;;;4991028;28;20224;-68
2022/03/14 04:35:12;;;;;;;2.20;2.08;;;20.30;41.80;;;;;;4975152;28;20181;-68
2022/03/14 04:37:38;;;;;;;2.55;2.35;;;20.30;41.80;;;;;;4975066;28;20188;-68
2022/03/14 04:40:04;;;;;;;2.30;2.10;;;20.30;41.80;;;;;;4990989;28;20299;-68
2022/03/14 04:42:30;;;;;;;1.90;1.80;;;20.30;41.80;;;;;;4991214;28;20216;-68
2022/03/14 04:44:56;;;;;;;2.13;2.03;;;20.30;41.90;;;;;;4975338;28;20205;-68
2022/03/14 04:47:21;;;;;;;2.20;2.10;;;20.30;41.80;;;;;;4991234;28;20207;-68
2022/03/14 04:49:47;;;;;;;1.90;1.80;;;20.30;41.80;;;;;;4974967;28;20185;-68
2022/03/14 04:52:14;;;;;;;2.28;2.08;;;20.30;41.80;;;;;;4991081;28;20200;-68
2022/03/14 04:54:40;;;;;;;1.92;1.83;;;20.30;41.90;;;;;;4992074;28;20235;-68
2022/03/14 04:57:06;;;;;;;2.15;2.00;;;20.30;41.90;;;;;;4991195;28;20189;-68
2022/03/14 04:59:32;;;;;;;2.00;1.90;;;20.30;41.80;;;;;;4976305;28;20251;-68
2022/03/14 05:01:57;;;;;;;2.05;1.95;;;20.30;41.80;;;;;;4994611;28;20185;-68
2022/03/14 05:04:23;;;;;;;1.95;1.85;;;20.30;41.90;;;;;;4978368;28;20201;-68
2022/03/14 05:06:49;;;;;;;1.90;1.80;;;20.30;41.90;;;;;;4994538;28;20176;-68
2022/03/14 05:09:15;;;;;;;1.90;1.80;;;20.30;41.80;;;;;;4995696;28;20573;-68
2022/03/14 05:11:40;;;;;;;2.00;1.90;;;20.30;41.80;;;;;;4969877;28;20196;-68
2022/03/14 05:14:10;;;;;;;1.70;1.60;;;20.30;41.80;;;;;;4994891;28;20208;-68
2022/03/14 05:16:36;;;;;;;1.85;1.75;;;20.30;41.80;;;;;;4964980;28;20189;-68
2022/03/14 05:19:03;;;;;;;1.80;1.70;;;20.30;41.80;;;;;;4994493;28;20216;-68
2022/03/14 05:21:31;;;;;;;1.90;1.80;;;20.30;41.90;;;;;;4978219;28;20178;-68
2022/03/14 05:23:57;;;;;;;1.88;1.77;;;20.30;41.90;;;;;;4977581;28;20668;-68
2022/03/14 05:26:22;;;;;;;1.70;1.60;;;20.30;41.90;;;;;;4962029;28;20196;-69
2022/03/14 05:28:48;;;;;;;2.10;2.00;;;20.30;42.00;;;;;;4994071;28;20201;-69
2022/03/14 05:31:14;;;;;;;1.75;1.65;;;20.30;42.00;;;;;;4994410;28;20243;-69
2022/03/14 05:33:40;;;;;;;1.40;1.30;;;20.30;42.00;;;;;;4993713;28;20209;-69
2022/03/14 05:36:05;;;;;;;1.92;1.83;;;20.30;42.00;;;;;;4995156;28;20193;-69
2022/03/14 05:38:32;;;;;;;1.45;1.35;;;20.30;42.00;;;;;;4977690;28;20193;-69
2022/03/14 05:40:58;;;;;;;1.60;1.50;;;20.30;42.70;;;;;;4977731;28;20220;-69
2022/03/14 05:43:27;;;;;;;1.45;1.35;;;20.30;42.10;;;;;;4994901;28;20243;-69
2022/03/14 05:45:53;;;;;;;1.50;1.40;;;20.30;42.10;;;;;;4961531;28;20243;-69
2022/03/14 05:48:20;;;;;;;1.63;1.52;;;20.30;42.10;;;;;;4993750;28;20188;-69
2022/03/14 05:50:45;;;;;;;1.65;1.55;;;20.30;42.10;;;;;;4977621;28;20865;-69
2022/03/14 05:53:12;;;;;;;1.60;1.50;;;20.30;42.10;;;;;;4977231;28;20208;-70
2022/03/14 05:55:39;;;;;;;1.50;1.40;;;20.30;42.20;;;;;;4977477;28;20189;-69
2022/03/14 05:58:06;;;;;;;1.38;1.27;;;20.30;42.20;;;;;;4993920;28;20189;-69
2022/03/14 06:00:33;;;;;;;1.50;1.40;;;20.30;42.20;;;;;;4961037;28;20223;-69
2022/03/14 06:02:59;;;;;;;1.38;1.27;;;20.30;42.10;;;;;;4993388;28;20205;-70
2022/03/14 06:05:25;;;;;;;1.35;1.25;;;20.30;42.10;;;;;;4993500;28;20547;-69
2022/03/14 06:07:51;;;;;;;1.50;1.40;;;20.30;42.20;;;;;;4993111;28;20269;-70
2022/03/14 06:10:17;;;;;;;1.33;1.23;;;20.30;42.20;;;;;;4975892;28;20287;-69
2022/03/14 06:12:44;;;;;;;1.45;1.35;;;20.30;42.20;;;;;;4992891;28;20267;-69
2022/03/14 06:15:13;;;;;;;1.30;1.20;;;20.30;42.20;;;;;;4992989;28;20200;-69
2022/03/14 06:17:43;;;;;;;1.58;1.48;;;20.30;42.20;;;;;;4976492;28;20614;-69
2022/03/14 06:20:11;;;;;;;1.27;1.17;;;20.30;42.20;;;;;;4976852;28;20295;-69
2022/03/14 06:22:49;;;;;;;1.27;1.17;;;20.30;42.20;;;;;;4993934;28;20213;-69
2022/03/14 06:25:17;;;;;;;1.52;1.13;;;20.30;42.20;;;;;;4994342;28;20173;-69
2022/03/14 06:27:45;;;;;;;1.50;1.40;;;20.30;42.20;;;;;;4977055;28;20185;-69
2022/03/14 06:30:11;;;;;;;1.27;1.17;;;20.30;42.90;;;;;;4977054;28;20654;-69
2022/03/14 06:32:41;;;;;;;1.50;1.40;;;20.30;42.30;;;;;;4976366;28;20221;-68
2022/03/14 06:35:16;;;;;;;1.40;1.30;;;20.30;42.30;;;;;;5010029;23;20757;-65
2022/03/14 06:37:44;;;;;;;1.30;1.20;;;20.30;42.20;;;;;;4976618;28;20272;-65
2022/03/14 06:40:10;;;;;;;1.48;1.10;;;20.30;42.20;;;;;;4993005;28;20282;-65
2022/03/14 06:42:41;;;;;;;1.75;1.35;;;20.30;42.20;;;;;;4976563;28;20240;-65
2022/03/14 06:45:09;;;;;;;1.52;1.42;;;20.30;42.20;;;;;;4960487;28;20208;-65
2022/03/14 06:47:36;;;;;;;1.10;1.10;;;20.40;42.30;;;;;;4971100;28;20268;-64
2022/03/14 06:50:02;;;;;;;1.10;1.10;;;20.40;42.30;;;;;;4993698;28;20177;-64
2022/03/14 06:52:27;;;;;;;1.50;0.98;;;20.40;42.20;;;;;;4956909;28;20174;-64
2022/03/14 06:54:53;;;;;;;1.10;1.00;;;20.40;42.20;;;;;;4972193;28;20592;-64
2022/03/14 06:57:19;;;;;;;1.20;1.10;;;20.40;42.10;;;;;;4945012;28;20174;-64
2022/03/14 06:59:45;;;;;;;1.55;1.08;;;20.40;42.00;;;;;;4993275;28;20231;-65
2022/03/14 07:02:11;;;;;;;1.33;1.23;;;20.50;42.00;;;;;;4976103;28;20185;-64
2022/03/14 07:04:38;;;;;;;1.00;1.00;;;20.50;42.00;;;;;;4997190;28;20247;-66
2022/03/14 07:07:05;;;;;;;1.30;1.20;;;20.50;42.00;;;;;;5004329;28;20192;-66
2022/03/14 07:09:32;;;;;;;0.98;0.98;;;20.50;42.00;;;;;;4976089;28;20185;-66
2022/03/14 07:11:58;;;;;;;1.23;1.15;;;20.50;42.10;;;;;;4975944;28;20193;-66
2022/03/14 07:14:23;;;;;;;1.23;1.10;;;20.50;42.00;;;;;;4975708;28;20228;-66
2022/03/14 07:16:50;;;;;;;1.63;1.35;;;20.50;42.20;;;;;;4981363;28;20224;-67
2022/03/14 07:19:18;;;;;;;1.20;1.10;;;20.50;42.20;;;;;;4975533;28;20201;-66
2022/03/14 07:21:44;;;;;;;1.17;1.15;;;20.50;42.30;;;;;;4975576;28;20188;-66
2022/03/14 07:24:10;;;;;;;1.77;0.98;;;20.50;42.30;;;;;;4991835;28;20220;-68
2022/03/14 07:26:36;;;;;;;1.67;1.13;;;20.50;42.30;;;;;;4975070;28;20177;-66
2022/03/14 07:29:02;;;;;;;1.45;1.33;;;20.50;42.30;;;;;;4984324;28;20184;-66
2022/03/14 07:31:28;;;;;;;1.40;1.20;;;20.40;42.30;;;;;;4975741;28;20197;-67
2022/03/14 07:33:54;;;;;;;1.35;1.10;;;20.40;42.30;;;;;;4975263;28;20212;-66
2022/03/14 07:36:19;;;;;;;1.20;1.10;;;20.50;42.40;;;;;;4975518;28;20239;-66
2022/03/14 07:38:46;;;;;;;1.20;1.10;;;20.50;42.40;;;;;;4975813;28;20207;-66
2022/03/14 07:41:12;;;;;;;1.25;1.17;;;20.50;42.30;;;;;;4959736;28;20185;-65
2022/03/14 07:43:39;;;;;;;0.90;0.90;;;20.50;42.40;;;;;;4991517;28;20326;-65
2022/03/14 07:46:05;;;;;;;1.30;1.20;;;20.50;42.30;;;;;;4975444;28;20232;-66
2022/03/14 07:48:31;;;;;;;1.05;1.05;;;20.60;42.20;;;;;;4975334;28;20192;-66
2022/03/14 07:50:58;;;;;;;2.03;1.00;;;20.60;42.10;;;;;;4975858;28;20208;-66
2022/03/14 07:53:23;;;;;;;1.00;1.00;;;20.60;42.10;;;;;;4975551;28;20177;-66
2022/03/14 07:55:49;;;;;;;1.10;1.10;;;20.60;42.10;;;;;;4975481;28;20228;-66
2022/03/14 07:58:15;;;;;;;1.67;1.15;;;20.60;42.10;;;;;;4991608;28;20669;-65
2022/03/14 08:00:41;;;;;;;1.25;1.15;;;20.70;42.20;;;;;;4975251;28;20275;-65
2022/03/14 08:03:07;;;;;;;1.00;1.00;;;20.70;42.20;;;;;;4975468;28;20211;-65
2022/03/14 08:05:33;;;;;;;0.85;0.85;;;20.70;42.20;;;;;;4959470;28;20208;-65
2022/03/14 08:08:00;;;;;;;0.90;0.90;;;20.70;42.20;;;;;;4959434;28;20181;-65
2022/03/14 08:10:26;;;;;;;1.00;0.90;;;20.60;42.10;;;;;;4975576;28;20193;-67
2022/03/14 08:12:55;;;;;;;1.20;1.10;;;20.60;42.10;;;;;;4961117;28;20197;-65
2022/03/14 08:15:32;;;;;;;1.00;0.90;;;20.60;42.10;;;;;;4989336;28;20213;-65
2022/03/14 08:18:05;;;;;;;0.80;0.80;;;20.60;42.10;;;;;;4986059;28;20239;-65
2022/03/14 08:20:32;;;;;;;1.00;1.00;;;20.60;42.10;;;;;;4959943;28;20217;-65
2022/03/14 08:23:02;;;;;;;2.25;0.90;;;20.70;42.20;;;;;;4955844;28;20181;-66
2022/03/14 08:25:30;;;;;;;1.20;1.10;;;20.60;42.10;;;;;;4962086;28;20213;-66
2022/03/14 08:27:56;;;;;;;1.00;1.00;;;20.70;42.20;;;;;;4975318;28;20193;-66
2022/03/14 08:30:23;;;;;;;1.73;1.00;;;20.70;42.20;;;;;;4959047;28;20271;-65
2022/03/14 08:32:51;;;;;;;1.00;0.90;;;20.70;42.20;;;;;;4992728;28;20185;-66
2022/03/14 08:35:19;;;;;;;1.73;1.13;;;20.70;42.20;;;;;;4977694;28;20221;-66
2022/03/14 08:37:45;;;;;;;1.58;1.00;;;20.60;42.10;;;;;;4978595;28;20196;-65
2022/03/14 08:40:15;;;;;;;0.90;0.90;;;20.60;42.10;;;;;;4994836;28;20278;-65
2022/03/14 08:42:44;;;;;;;1.00;1.00;;;20.70;42.20;;;;;;4978381;28;20183;-65
2022/03/14 08:45:12;;;;;;;2.45;0.90;;;20.70;42.20;;;;;;4978199;28;20208;-65
2022/03/14 08:47:38;;;;;;;0.90;0.90;;;20.70;42.20;;;;;;4978364;28;20212;-65
2022/03/14 08:50:08;;;;;;;1.63;1.00;;;20.70;42.20;;;;;;4978630;28;20185;-65
2022/03/14 08:52:37;;;;;;;0.95;0.95;;;20.70;42.20;;;;;;4994523;28;20197;-65
2022/03/14 08:55:04;;;;;;;1.23;0.85;;;20.70;42.20;;;;;;4994334;28;20212;-65
2022/03/14 08:57:31;;;;;;;0.95;0.80;;;20.70;42.20;;;;;;5003671;28;20366;-67
2022/03/14 08:59:58;;;;;;;1.38;0.90;;;20.70;42.20;;;;;;4970069;28;20205;-65
2022/03/14 09:02:23;;;;;;;1.23;0.85;;;20.70;42.20;;;;;;4978210;28;20196;-66
2022/03/14 09:04:49;;;;;;;0.80;0.80;;;20.70;42.20;;;;;;4995644;28;20212;-65
2022/03/14 09:07:30;;;;;;;0.80;0.80;;;20.70;42.20;;;;;;4984305;28;20216;-65
2022/03/14 09:10:06;;;;;;;1.05;0.80;;;20.70;42.20;;;;;;4969598;28;20193;-66
2022/03/14 09:12:33;;;;;;;0.80;0.80;;;20.70;42.20;;;;;;4962158;28;20184;-65
2022/03/14 09:14:59;;;;;;;0.80;0.80;;;20.70;42.20;;;;;;4993735;28;20243;-62
2022/03/14 09:17:26;;;;;;;1.58;0.80;;;20.70;42.20;;;;;;4971079;28;20186;-65
2022/03/14 09:19:52;;;;;;;0.93;0.90;;;20.70;42.80;;;;;;4976517;28;20240;-65
2022/03/14 09:22:18;;;;;;;1.08;0.85;;;20.70;42.20;;;;;;4993905;28;20219;-66
2022/03/14 09:24:46;;;;;;;0.80;0.80;;;20.70;42.20;;;;;;4971633;28;20267;-66
2022/03/14 09:27:11;;;;;;;0.90;0.75;;;20.70;42.20;;;;;;4984487;28;20272;-66
2022/03/14 09:29:38;;;;;;;1.30;0.70;;;20.70;42.50;;;;;;4978043;28;20201;-66
2022/03/14 09:32:05;;;;;;;0.70;0.65;;;20.70;42.40;;;;;;4977406;28;20193;-66
2022/03/14 09:34:31;;;;;;;1.65;0.90;;;20.70;42.60;;;;;;4961320;28;20288;-65
2022/03/14 09:36:57;;;;;;;0.80;0.80;;;20.70;42.50;;;;;;4984678;28;20268;-65
2022/03/14 09:39:23;;;;;;;0.80;0.70;;;20.70;42.40;;;;;;4983616;28;20235;-66
2022/03/14 09:41:53;;;;;;;0.77;0.77;;;20.70;42.30;;;;;;4970934;28;20224;-65
2022/03/14 09:44:21;;;;;;;0.75;0.70;;;20.70;42.40;;;;;;4994629;28;20213;-65
2022/03/14 09:46:48;;;;;;;0.75;0.70;;;20.70;42.20;;;;;;4973766;28;20240;-65
2022/03/14 09:49:16;;;;;;;0.75;0.75;;;20.70;42.30;;;;;;4988545;28;20181;-66
2022/03/14 09:51:44;;;;;;;0.70;0.70;;;20.70;42.30;;;;;;4992427;28;20189;-66
2022/03/14 09:54:12;;;;;;;0.80;0.80;;;20.70;42.40;;;;;;4984420;28;20262;-66
2022/03/14 09:56:41;;;;;;;0.80;0.80;;;20.70;42.30;;;;;;4980253;28;20654;-65
2022/03/14 09:59:12;;;;;;;0.80;0.80;;;20.70;42.20;;;;;;4989273;28;20237;-66
2022/03/14 10:01:39;;;;;;;0.82;0.82;;;20.70;42.20;;;;;;4975491;28;20189;-64
2022/03/14 10:04:05;;;;;;;0.85;0.85;;;20.70;42.70;;;;;;4968871;28;20278;-66
2022/03/14 10:06:31;;;;;;;0.75;0.75;;;20.70;42.70;;;;;;4989477;28;20192;-66
2022/03/14 10:08:57;;;;;;;0.75;0.75;;;20.70;42.60;;;;;;4975598;28;20239;-66
2022/03/14 10:11:23;;;;;;;0.70;0.70;;;20.70;42.90;;;;;;4994385;28;20186;-67
2022/03/14 10:13:49;;;;;;;0.98;0.90;;;20.70;42.60;;;;;;4977185;28;20303;-67
2022/03/14 10:16:16;;;;;;;1.00;0.85;;;20.70;42.60;;;;;;4993894;28;20195;-66
2022/03/14 10:18:58;;;;;;;1.20;0.80;;;20.70;43.20;;;;;;4969007;28;20185;-67
2022/03/14 10:21:35;;;;;;;1.00;0.90;;;20.70;42.60;;;;;;4969993;28;20194;-67
2022/03/14 10:24:05;;;;;;;0.80;0.80;;;20.70;42.60;;;;;;4960917;28;20212;-67
2022/03/14 10:26:33;;;;;;;0.75;0.75;;;20.70;42.70;;;;;;4994369;28;20183;-67
2022/03/14 10:29:01;;;;;;;0.70;0.70;;;20.70;42.60;;;;;;4960520;28;20193;-66
2022/03/14 10:31:37;;;;;;;0.80;0.80;;;20.70;42.50;;;;;;4968612;28;20212;-65
2022/03/14 10:34:11;;;;;;;0.80;0.80;;;20.70;42.50;;;;;;4957140;28;20221;-66
2022/03/14 10:36:54;;;;;;;1.13;0.80;;;20.70;42.60;;;;;;4956341;28;20179;-66
2022/03/14 10:39:27;;;;;;;0.73;0.73;;;20.70;42.50;;;;;;4976673;28;20632;-66
2022/03/14 10:42:08;;;;;;;1.30;0.98;;;20.70;42.60;;;;;;4964631;28;20194;-67
2022/03/14 10:44:42;;;;;;;0.80;0.80;;;20.70;42.50;;;;;;4956356;28;20208;-67
2022/03/14 10:47:12;;;;;;;0.70;0.70;;;20.70;42.50;;;;;;4967100;28;20213;-67
2022/03/14 10:49:40;;;;;;;1.55;0.70;;;20.70;42.50;;;;;;4975561;28;20199;-64
2022/03/14 10:52:08;;;;;;;0.80;0.80;;;20.70;42.50;;;;;;4952950;28;20188;-66
2022/03/14 10:54:38;;;;;;;1.10;0.90;;;20.70;42.50;;;;;;4975838;28;20219;-66
2022/03/14 10:57:17;;;;;;;0.70;0.70;;;20.70;42.50;;;;;;4992745;28;20189;-66
2022/03/14 10:59:54;;;;;;;1.85;0.90;;;20.70;42.40;;;;;;4970821;28;20215;-67
2022/03/14 11:02:26;;;;;;;0.70;0.70;;;20.70;42.50;;;;;;4979887;28;20187;-66
2022/03/14 11:04:57;;;;;;;1.13;0.90;;;20.70;42.60;;;;;;4985013;28;20708;-68
2022/03/14 11:07:32;;;;;;;0.82;0.73;;;20.70;42.50;;;;;;4976087;28;20781;-67
2022/03/14 11:10:06;;;;;;;1.10;0.82;;;20.70;42.60;;;;;;4975685;28;20180;-66
2022/03/14 11:12:32;;;;;;;1.55;0.80;;;20.70;42.50;;;;;;4999994;28;20181;-67
2022/03/14 11:15:04;;;;;;;0.73;0.73;;;20.70;42.50;;;;;;4967518;28;20209;-68
2022/03/14 11:17:36;;;;;;;0.70;0.70;;;20.70;42.60;;;;;;4975858;28;20707;-66
2022/03/14 11:20:03;;;;;;;1.85;0.90;;;20.70;42.60;;;;;;4940476;28;20297;-66
2022/03/14 11:22:30;;;;;;;1.33;0.80;;;20.70;42.20;;;;;;4956680;28;20182;-66
2022/03/14 11:24:59;;;;;;;0.65;0.65;;;20.70;42.50;;;;;;4983254;28;20243;-68
2022/03/14 11:27:29;;;;;;;0.82;0.80;;;20.70;42.50;;;;;;4976180;28;20204;-64
2022/03/14 11:30:04;;;;;;;1.13;1.00;;;20.70;42.40;;;;;;4970750;28;20193;-67
2022/03/14 11:32:30;;;;;;;1.38;0.88;;;20.70;42.40;;;;;;4975718;28;20184;-66
2022/03/14 11:34:56;;;;;;;1.63;0.90;;;20.70;42.40;;;;;;4959085;28;20315;-67
2022/03/14 11:37:23;;;;;;;0.63;0.63;;;20.70;42.50;;;;;;4972092;28;20188;-67
2022/03/14 11:39:51;;;;;;;2.25;0.80;;;20.70;42.30;;;;;;4992997;28;20216;-66
2022/03/14 11:42:18;;;;;;;0.82;0.82;;;20.70;42.20;;;;;;4975292;28;20188;-67
2022/03/14 11:44:45;;;;;;;0.73;0.73;;;20.70;42.90;;;;;;4975697;28;20212;-68
2022/03/14 11:47:14;;;;;;;1.10;0.73;;;20.70;42.20;;;;;;4981877;28;20271;-64
2022/03/14 11:49:41;;;;;;;0.70;0.70;;;20.70;42.40;;;;;;4991584;28;20189;-68
2022/03/14 11:52:19;;;;;;;0.80;0.80;;;20.70;42.20;;;;;;4975500;28;20211;-67
2022/03/14 11:54:49;;;;;;;0.70;0.70;;;20.70;42.40;;;;;;4967030;28;20232;-67
2022/03/14 11:57:41;;;;;;;0.80;0.80;;;20.70;42.40;;;;;;4959108;28;20189;-66
2022/03/14 12:00:22;;;;;;;0.80;0.80;;;20.70;42.20;;;;;;4984045;28;20204;-66
2022/03/14 12:02:51;;;;;;;1.27;0.82;;;20.70;42.40;;;;;;4960972;28;20213;-67
2022/03/14 12:05:33;;;;;;;1.60;0.85;;;20.70;42.20;;;;;;4974820;28;20224;-66
2022/03/14 12:08:01;;;;;;;1.77;0.88;;;20.70;42.40;;;;;;4983231;28;20196;-66
2022/03/14 12:10:34;;;;;;;1.13;1.02;;;20.70;42.20;;;;;;5000641;28;20312;-67
2022/03/14 12:13:02;;;;;;;3.10;1.30;;;20.70;42.40;;;;;;4978522;28;20254;-66
2022/03/14 12:15:41;;;;;;;5.15;1.10;;;20.90;46.20;;;;;;4979212;28;20216;-68
2022/03/14 12:18:28;;;;;;;7.68;1.20;;;20.90;47.90;;;;;;4992716;28;20330;-67
2022/03/14 12:20:59;;;;;;;4.97;1.20;;;21.00;48.80;;;;;;4976175;28;20216;-66
2022/03/14 12:23:29;;;;;;;3.63;1.13;;;21.10;49.10;;;;;;4966017;28;20260;-68
2022/03/14 12:26:00;;;;;;;5.57;1.25;;;21.10;49.30;;;;;;4978943;28;20351;-67
2022/03/14 12:28:33;;;;;;;4.18;1.42;;;21.10;49.50;;;;;;4991353;28;20246;-67
2022/03/14 12:31:13;;;;;;;3.50;1.00;;;21.10;49.60;;;;;;4978641;28;20188;-65
2022/03/14 12:33:48;;;;;;;5.80;1.33;;;21.10;49.70;;;;;;4977753;28;20223;-67
2022/03/14 12:36:22;;;;;;;6.03;1.20;;;21.10;49.70;;;;;;4978578;28;20188;-67
2022/03/14 12:39:10;;;;;;;3.03;1.05;;;21.10;50.10;;;;;;4959186;28;20202;-68
2022/03/14 12:41:43;;;;;;;3.63;1.38;;;21.10;49.90;;;;;;4975418;28;20601;-69
2022/03/14 12:44:23;;;;;;;3.95;1.17;;;21.10;50.00;;;;;;5004331;23;20259;-69
2022/03/14 12:47:00;;;;;;;4.82;1.20;;;21.20;50.10;;;;;;5004694;28;20177;-69
2022/03/14 12:49:38;;;;;;;5.15;1.58;;;21.10;50.10;;;;;;4997986;28;20193;-70
2022/03/14 12:52:16;;;;;;;2.35;1.00;;;21.20;50.20;;;;;;4989164;28;20218;-69